DE-0053 weather

Cham-Janahof Airfield
Cham, Bavaria, Germany

Public forecast

Using degrees Celsius for public forecast. Weather courtesy of forecast.io.

METAR (pilot weather report)

Closest report is Hohenfels Army Air Field, 32.1 nm (59.4 km) W. Retrieved 2019/09/16 12:56 UTC (41 minutes ago):

ETIH 161256Z AUTO 29005KT 9999 FEW150 SCT180 22/15 A3010 RMK AO2 SLP185 T02230149

TAF (pilot weather forecast)

Forecast is more than 12 hours old.

Closest forecast is Hohenfels Army Air Field, 32.1 nm (59.4 km) W. Retrieved 2017/06/19 21:16 UTC (2 years ago):

TAF ETIH 192112Z 1921/2103 VRB06KT 9999 FEW070 QNH2994INS TEMPO 2011/2016 29012KT TX28/2013Z TN12/2003Z LAST NO AMDS AFT 1921